sensor_id;sensor_type;location;lat;lon;timestamp;pressure;altitude;pressure_sealevel;temperature
67829;BMP280;54626;45.436;10.942;2023-06-10T00:02:20;100235.06;;;22.55
67829;BMP280;54626;45.436;10.942;2023-06-10T00:04:47;100228.88;;;22.59
67829;BMP280;54626;45.436;10.942;2023-06-10T00:07:14;100228.28;;;22.60
67829;BMP280;54626;45.436;10.942;2023-06-10T00:09:40;100227.53;;;22.60
67829;BMP280;54626;45.436;10.942;2023-06-10T00:12:07;100230.81;;;22.54
67829;BMP280;54626;45.436;10.942;2023-06-10T00:14:37;100232.06;;;22.51
67829;BMP280;54626;45.436;10.942;2023-06-10T00:17:05;100234.78;;;22.49
67829;BMP280;54626;45.436;10.942;2023-06-10T00:19:31;100236.13;;;22.48
67829;BMP280;54626;45.436;10.942;2023-06-10T00:21:58;100231.34;;;22.51
67829;BMP280;54626;45.436;10.942;2023-06-10T00:24:25;100238.22;;;22.48
67829;BMP280;54626;45.436;10.942;2023-06-10T00:26:52;100234.41;;;22.41
67829;BMP280;54626;45.436;10.942;2023-06-10T00:29:18;100225.84;;;22.39
67829;BMP280;54626;45.436;10.942;2023-06-10T00:31:45;100224.78;;;22.46
67829;BMP280;54626;45.436;10.942;2023-06-10T00:34:13;100228.16;;;22.29
67829;BMP280;54626;45.436;10.942;2023-06-10T00:36:42;100227.97;;;22.25
67829;BMP280;54626;45.436;10.942;2023-06-10T00:39:09;100233.72;;;22.27
67829;BMP280;54626;45.436;10.942;2023-06-10T00:41:36;100234.97;;;22.24
67829;BMP280;54626;45.436;10.942;2023-06-10T00:44:02;100230.69;;;22.23
67829;BMP280;54626;45.436;10.942;2023-06-10T00:46:29;100232.56;;;22.19
67829;BMP280;54626;45.436;10.942;2023-06-10T00:48:58;100231.78;;;22.17
67829;BMP280;54626;45.436;10.942;2023-06-10T00:51:24;100229.56;;;22.15
67829;BMP280;54626;45.436;10.942;2023-06-10T00:53:52;100235.19;;;22.15
67829;BMP280;54626;45.436;10.942;2023-06-10T00:56:20;100238.88;;;22.18
67829;BMP280;54626;45.436;10.942;2023-06-10T00:58:47;100235.19;;;22.15
67829;BMP280;54626;45.436;10.942;2023-06-10T01:01:14;100243.13;;;22.19
67829;BMP280;54626;45.436;10.942;2023-06-10T01:03:40;100244.69;;;22.22
67829;BMP280;54626;45.436;10.942;2023-06-10T01:06:23;100235.31;;;22.17
67829;BMP280;54626;45.436;10.942;2023-06-10T01:09:09;100237.19;;;22.13
67829;BMP280;54626;45.436;10.942;2023-06-10T01:12:15;100235.00;;;22.11
67829;BMP280;54626;45.436;10.942;2023-06-10T01:14:41;100244.38;;;22.16
67829;BMP280;54626;45.436;10.942;2023-06-10T01:17:11;100240.31;;;22.19
67829;BMP280;54626;45.436;10.942;2023-06-10T01:19:38;100238.47;;;22.10
67829;BMP280;54626;45.436;10.942;2023-06-10T01:22:08;100245.34;;;22.07
67829;BMP280;54626;45.436;10.942;2023-06-10T01:24:37;100241.47;;;22.00
67829;BMP280;54626;45.436;10.942;2023-06-10T01:27:11;100241.19;;;21.94
67829;BMP280;54626;45.436;10.942;2023-06-10T01:29:44;100244.00;;;21.94
67829;BMP280;54626;45.436;10.942;2023-06-10T01:32:26;100239.13;;;21.95
67829;BMP280;54626;45.436;10.942;2023-06-10T01:34:54;100235.63;;;21.96
67829;BMP280;54626;45.436;10.942;2023-06-10T01:37:24;100236.19;;;21.93
67829;BMP280;54626;45.436;10.942;2023-06-10T01:39:51;100233.38;;;21.79
67829;BMP280;54626;45.436;10.942;2023-06-10T01:42:18;100236.09;;;21.77
67829;BMP280;54626;45.436;10.942;2023-06-10T01:44:46;100238.31;;;21.79
67829;BMP280;54626;45.436;10.942;2023-06-10T01:47:13;100237.16;;;21.84
67829;BMP280;54626;45.436;10.942;2023-06-10T01:49:39;100235.97;;;21.89
67829;BMP280;54626;45.436;10.942;2023-06-10T01:52:06;100236.91;;;21.93
67829;BMP280;54626;45.436;10.942;2023-06-10T01:54:35;100242.44;;;21.91
67829;BMP280;54626;45.436;10.942;2023-06-10T01:57:02;100231.91;;;21.92
67829;BMP280;54626;45.436;10.942;2023-06-10T01:59:28;100236.69;;;21.89
67829;BMP280;54626;45.436;10.942;2023-06-10T02:01:55;100235.34;;;21.90
67829;BMP280;54626;45.436;10.942;2023-06-10T02:04:21;100231.59;;;21.86
67829;BMP280;54626;45.436;10.942;2023-06-10T02:06:48;100225.69;;;21.80
67829;BMP280;54626;45.436;10.942;2023-06-10T02:09:16;100219.72;;;21.74
67829;BMP280;54626;45.436;10.942;2023-06-10T02:11:44;100218.56;;;21.66
67829;BMP280;54626;45.436;10.942;2023-06-10T02:14:11;100220.16;;;21.55
67829;BMP280;54626;45.436;10.942;2023-06-10T02:16:37;100217.63;;;21.48
67829;BMP280;54626;45.436;10.942;2023-06-10T02:19:04;100213.06;;;21.41
67829;BMP280;54626;45.436;10.942;2023-06-10T02:21:34;100222.75;;;21.38
67829;BMP280;54626;45.436;10.942;2023-06-10T02:24:03;100220.66;;;21.38
67829;BMP280;54626;45.436;10.942;2023-06-10T02:26:30;100226.09;;;21.34
67829;BMP280;54626;45.436;10.942;2023-06-10T02:28:57;100224.31;;;21.27
67829;BMP280;54626;45.436;10.942;2023-06-10T02:31:23;100231.59;;;21.32
67829;BMP280;54626;45.436;10.942;2023-06-10T02:33:51;100231.91;;;21.38
67829;BMP280;54626;45.436;10.942;2023-06-10T02:36:18;100236.19;;;21.39
67829;BMP280;54626;45.436;10.942;2023-06-10T02:38:44;100226.50;;;21.42
67829;BMP280;54626;45.436;10.942;2023-06-10T02:41:11;100232.97;;;21.45
67829;BMP280;54626;45.436;10.942;2023-06-10T02:43:38;100228.69;;;21.44
67829;BMP280;54626;45.436;10.942;2023-06-10T02:46:06;100223.59;;;21.40
67829;BMP280;54626;45.436;10.942;2023-06-10T02:48:40;100222.84;;;21.40
67829;BMP280;54626;45.436;10.942;2023-06-10T02:51:12;100218.56;;;21.39
67829;BMP280;54626;45.436;10.942;2023-06-10T02:53:38;100233.16;;;21.35
67829;BMP280;54626;45.436;10.942;2023-06-10T02:56:05;100229.09;;;21.38
67829;BMP280;54626;45.436;10.942;2023-06-10T02:58:31;100224.84;;;21.37
67829;BMP280;54626;45.436;10.942;2023-06-10T03:01:00;100230.34;;;21.35
67829;BMP280;54626;45.436;10.942;2023-06-10T03:03:28;100232.31;;;21.33
67829;BMP280;54626;45.436;10.942;2023-06-10T03:05:57;100230.47;;;21.37
67829;BMP280;54626;45.436;10.942;2023-06-10T03:08:25;100236.19;;;21.39
67829;BMP280;54626;45.436;10.942;2023-06-10T03:10:52;100241.81;;;21.39
67829;BMP280;54626;45.436;10.942;2023-06-10T03:13:40;100246.63;;;21.37
67829;BMP280;54626;45.436;10.942;2023-06-10T03:16:28;100248.19;;;21.40
67829;BMP280;54626;45.436;10.942;2023-06-10T03:18:58;100243.59;;;21.33
67829;BMP280;54626;45.436;10.942;2023-06-10T03:24:41;100243.00;;;21.34
67829;BMP280;54626;45.436;10.942;2023-06-10T03:27:07;100246.41;;;21.33
67829;BMP280;54626;45.436;10.942;2023-06-10T03:29:52;100248.72;;;21.36
67829;BMP280;54626;45.436;10.942;2023-06-10T03:32:29;100242.03;;;21.30
67829;BMP280;54626;45.436;10.942;2023-06-10T03:35:18;100247.16;;;21.33
67829;BMP280;54626;45.436;10.942;2023-06-10T03:37:44;100246.28;;;21.31
67829;BMP280;54626;45.436;10.942;2023-06-10T03:40:12;100242.25;;;21.34
67829;BMP280;54626;45.436;10.942;2023-06-10T03:42:47;100243.59;;;21.33
67829;BMP280;54626;45.436;10.942;2023-06-10T03:45:14;100244.34;;;21.33
67829;BMP280;54626;45.436;10.942;2023-06-10T03:51:34;100254.63;;;21.29
67829;BMP280;54626;45.436;10.942;2023-06-10T03:57:13;100263.16;;;21.31
67829;BMP280;54626;45.436;10.942;2023-06-10T03:59:40;100259.13;;;21.34
67829;BMP280;54626;45.436;10.942;2023-06-10T04:02:28;100259.97;;;21.36
67829;BMP280;54626;45.436;10.942;2023-06-10T04:05:27;100248.19;;;21.26
67829;BMP280;54626;45.436;10.942;2023-06-10T04:11:59;100252.25;;;21.37
67829;BMP280;54626;45.436;10.942;2023-06-10T04:14:26;100251.44;;;21.34
67829;BMP280;54626;45.436;10.942;2023-06-10T04:16:55;100252.25;;;21.37
67829;BMP280;54626;45.436;10.942;2023-06-10T04:19:23;100257.16;;;21.36
67829;BMP280;54626;45.436;10.942;2023-06-10T04:21:49;100248.81;;;21.38
67829;BMP280;54626;45.436;10.942;2023-06-10T04:24:16;100239.13;;;21.41
67829;BMP280;54626;45.436;10.942;2023-06-10T04:26:43;100246.00;;;21.38
67829;BMP280;54626;45.436;10.942;2023-06-10T04:29:14;100236.09;;;21.37
67829;BMP280;54626;45.436;10.942;2023-06-10T04:31:43;100243.09;;;21.36
67829;BMP280;54626;45.436;10.942;2023-06-10T04:34:12;100241.28;;;21.43
67829;BMP280;54626;45.436;10.942;2023-06-10T04:36:39;100239.97;;;21.57
67829;BMP280;54626;45.436;10.942;2023-06-10T04:39:06;100243.22;;;21.65
67829;BMP280;54626;45.436;10.942;2023-06-10T04:41:32;100242.03;;;21.70
67829;BMP280;54626;45.436;10.942;2023-06-10T04:43:59;100242.25;;;21.74
67829;BMP280;54626;45.436;10.942;2023-06-10T04:46:25;100242.47;;;21.78
67829;BMP280;54626;45.436;10.942;2023-06-10T04:48:52;100241.22;;;21.81
67829;BMP280;54626;45.436;10.942;2023-06-10T04:51:20;100241.22;;;21.81
67829;BMP280;54626;45.436;10.942;2023-06-10T04:53:47;100244.44;;;21.89
67829;BMP280;54626;45.436;10.942;2023-06-10T04:56:14;100243.50;;;21.98
67829;BMP280;54626;45.436;10.942;2023-06-10T04:58:42;100239.81;;;22.09
67829;BMP280;54626;45.436;10.942;2023-06-10T05:01:08;100247.22;;;22.16
67829;BMP280;54626;45.436;10.942;2023-06-10T05:03:35;100236.38;;;22.10
67829;BMP280;54626;45.436;10.942;2023-06-10T05:06:04;100237.81;;;22.11
67829;BMP280;54626;45.436;10.942;2023-06-10T05:08:30;100233.84;;;22.16
67829;BMP280;54626;45.436;10.942;2023-06-10T05:10:57;100242.69;;;22.24
67829;BMP280;54626;45.436;10.942;2023-06-10T05:13:24;100239.97;;;22.26
67829;BMP280;54626;45.436;10.942;2023-06-10T05:15:51;100239.25;;;22.25
67829;BMP280;54626;45.436;10.942;2023-06-10T05:18:18;100240.31;;;22.19
67829;BMP280;54626;45.436;10.942;2023-06-10T05:20:47;100245.59;;;22.26
67829;BMP280;54626;45.436;10.942;2023-06-10T05:23:38;100237.25;;;22.28
67829;BMP280;54626;45.436;10.942;2023-06-10T05:26:11;100239.63;;;22.33
67829;BMP280;54626;45.436;10.942;2023-06-10T05:28:38;100246.66;;;22.32
67829;BMP280;54626;45.436;10.942;2023-06-10T05:31:05;100244.44;;;22.31
67829;BMP280;54626;45.436;10.942;2023-06-10T05:33:48;100236.63;;;22.29
67829;BMP280;54626;45.436;10.942;2023-06-10T05:36:14;100244.19;;;22.40
67829;BMP280;54626;45.436;10.942;2023-06-10T05:38:47;100244.16;;;22.54
67829;BMP280;54626;45.436;10.942;2023-06-10T05:41:13;100239.19;;;22.68
67829;BMP280;54626;45.436;10.942;2023-06-10T05:43:40;100240.00;;;22.70
67829;BMP280;54626;45.436;10.942;2023-06-10T05:46:07;100239.38;;;22.72
67829;BMP280;54626;45.436;10.942;2023-06-10T05:48:33;100238.56;;;22.84
67829;BMP280;54626;45.436;10.942;2023-06-10T05:51:03;100233.47;;;22.81
67829;BMP280;54626;45.436;10.942;2023-06-10T05:53:32;100235.78;;;23.00
67829;BMP280;54626;45.436;10.942;2023-06-10T05:55:58;100233.59;;;23.14
67829;BMP280;54626;45.436;10.942;2023-06-10T05:58:25;100229.44;;;23.30
67829;BMP280;54626;45.436;10.942;2023-06-10T06:00:51;100228.94;;;23.35
67829;BMP280;54626;45.436;10.942;2023-06-10T06:05:48;100234.09;;;23.56
67829;BMP280;54626;45.436;10.942;2023-06-10T06:08:31;100235.03;;;23.61
67829;BMP280;54626;45.436;10.942;2023-06-10T06:10:57;100242.13;;;23.62
67829;BMP280;54626;45.436;10.942;2023-06-10T06:13:24;100239.69;;;23.54
67829;BMP280;54626;45.436;10.942;2023-06-10T06:15:53;100231.81;;;23.68
67829;BMP280;54626;45.436;10.942;2023-06-10T06:19:09;100235.63;;;23.75
67829;BMP280;54626;45.436;10.942;2023-06-10T06:21:13;100233.28;;;23.69
67829;BMP280;54626;45.436;10.942;2023-06-10T06:24:07;100237.41;;;23.83
67829;BMP280;54626;45.436;10.942;2023-06-10T06:26:55;100232.22;;;23.78
67829;BMP280;54626;45.436;10.942;2023-06-10T06:29:23;100240.59;;;23.91
67829;BMP280;54626;45.436;10.942;2023-06-10T06:31:50;100239.06;;;23.88
67829;BMP280;54626;45.436;10.942;2023-06-10T06:34:16;100238.38;;;23.90
67829;BMP280;54626;45.436;10.942;2023-06-10T06:36:43;100235.09;;;23.95
67829;BMP280;54626;45.436;10.942;2023-06-10T06:39:11;100240.53;;;24.07
67829;BMP280;54626;45.436;10.942;2023-06-10T06:41:43;100235.75;;;24.11
67829;BMP280;54626;45.436;10.942;2023-06-10T06:44:10;100234.53;;;23.99
67829;BMP280;54626;45.436;10.942;2023-06-10T06:46:36;100243.97;;;23.88
67829;BMP280;54626;45.436;10.942;2023-06-10T06:49:03;100245.31;;;23.87
67829;BMP280;54626;45.436;10.942;2023-06-10T06:54:20;100249.06;;;24.09
67829;BMP280;54626;45.436;10.942;2023-06-10T06:56:46;100251.28;;;24.10
67829;BMP280;54626;45.436;10.942;2023-06-10T06:59:13;100251.16;;;23.91
67829;BMP280;54626;45.436;10.942;2023-06-10T07:01:40;100250.53;;;24.10
67829;BMP280;54626;45.436;10.942;2023-06-10T07:04:08;100257.63;;;23.93
67829;BMP280;54626;45.436;10.942;2023-06-10T07:06:44;100253.34;;;23.92
67829;BMP280;54626;45.436;10.942;2023-06-10T07:09:10;100255.06;;;24.17
67829;BMP280;54626;45.436;10.942;2023-06-10T07:11:47;100266.03;;;24.09
67829;BMP280;54626;45.436;10.942;2023-06-10T07:14:14;100254.00;;;24.08
67829;BMP280;54626;45.436;10.942;2023-06-10T07:16:40;100254.75;;;24.26
67829;BMP280;54626;45.436;10.942;2023-06-10T07:22:05;100257.34;;;24.55
67829;BMP280;54626;45.436;10.942;2023-06-10T07:24:44;100257.84;;;24.32
67829;BMP280;54626;45.436;10.942;2023-06-10T07:27:11;100264.44;;;24.38
67829;BMP280;54626;45.436;10.942;2023-06-10T07:29:41;100259.59;;;24.24
67829;BMP280;54626;45.436;10.942;2023-06-10T07:32:08;100263.41;;;24.30
67829;BMP280;54626;45.436;10.942;2023-06-10T07:34:35;100256.06;;;24.40
67829;BMP280;54626;45.436;10.942;2023-06-10T07:37:04;100250.84;;;24.52
67829;BMP280;54626;45.436;10.942;2023-06-10T07:39:37;100257.00;;;24.64
67829;BMP280;54626;45.436;10.942;2023-06-10T07:44:37;100250.84;;;24.52
67829;BMP280;54626;45.436;10.942;2023-06-10T07:47:09;100244.59;;;24.54
67829;BMP280;54626;45.436;10.942;2023-06-10T07:49:38;100246.34;;;24.63
67829;BMP280;54626;45.436;10.942;2023-06-10T07:52:05;100239.28;;;24.81
67829;BMP280;54626;45.436;10.942;2023-06-10T07:54:31;100240.09;;;25.03
67829;BMP280;54626;45.436;10.942;2023-06-10T07:57:05;100243.38;;;24.78
67829;BMP280;54626;45.436;10.942;2023-06-10T07:59:44;100243.78;;;24.88
67829;BMP280;54626;45.436;10.942;2023-06-10T08:02:11;100241.03;;;24.90
67829;BMP280;54626;45.436;10.942;2023-06-10T08:04:40;100239.47;;;24.68
67829;BMP280;54626;45.436;10.942;2023-06-10T08:07:20;100237.94;;;24.47
67829;BMP280;54626;45.436;10.942;2023-06-10T08:09:55;100240.13;;;24.49
67829;BMP280;54626;45.436;10.942;2023-06-10T08:12:25;100238.19;;;24.71
67829;BMP280;54626;45.436;10.942;2023-06-10T08:14:51;100239.28;;;24.81
67829;BMP280;54626;45.436;10.942;2023-06-10T08:17:18;100242.34;;;24.87
67829;BMP280;54626;45.436;10.942;2023-06-10T08:19:44;100239.78;;;24.76
67829;BMP280;54626;45.436;10.942;2023-06-10T08:22:14;100233.72;;;24.48
67829;BMP280;54626;45.436;10.942;2023-06-10T08:27:51;100237.84;;;24.45
67829;BMP280;54626;45.436;10.942;2023-06-10T08:33:41;100236.72;;;24.70
67829;BMP280;54626;45.436;10.942;2023-06-10T08:36:14;100246.00;;;24.72
67829;BMP280;54626;45.436;10.942;2023-06-10T08:38:40;100235.97;;;24.69
67829;BMP280;54626;45.436;10.942;2023-06-10T08:41:09;100233.53;;;24.79
67829;BMP280;54626;45.436;10.942;2023-06-10T08:43:51;100239.88;;;24.97
67829;BMP280;54626;45.436;10.942;2023-06-10T08:46:23;100242.59;;;25.12
67829;BMP280;54626;45.436;10.942;2023-06-10T08:48:53;100224.00;;;25.27
67829;BMP280;54626;45.436;10.942;2023-06-10T08:51:43;100235.16;;;25.23
67829;BMP280;54626;45.436;10.942;2023-06-10T08:54:31;100232.34;;;25.03
67829;BMP280;54626;45.436;10.942;2023-06-10T08:57:13;100234.31;;;25.18
67829;BMP280;54626;45.436;10.942;2023-06-10T08:59:40;100238.59;;;25.19
67829;BMP280;54626;45.436;10.942;2023-06-10T09:02:08;100229.13;;;25.13
67829;BMP280;54626;45.436;10.942;2023-06-10T09:04:37;100231.72;;;25.24
67829;BMP280;54626;45.436;10.942;2023-06-10T09:07:05;100231.41;;;25.16
67829;BMP280;54626;45.436;10.942;2023-06-10T09:09:32;100232.34;;;25.23
67829;BMP280;54626;45.436;10.942;2023-06-10T09:11:59;100238.63;;;25.40
67829;BMP280;54626;45.436;10.942;2023-06-10T09:14:27;100232.63;;;25.50
67829;BMP280;54626;45.436;10.942;2023-06-10T09:16:55;100228.94;;;25.45
67829;BMP280;54626;45.436;10.942;2023-06-10T09:19:45;100243.00;;;25.05
67829;BMP280;54626;45.436;10.942;2023-06-10T09:22:12;100251.06;;;25.12
67829;BMP280;54626;45.436;10.942;2023-06-10T09:25:06;100244.91;;;25.37
67829;BMP280;54626;45.436;10.942;2023-06-10T09:27:55;100248.38;;;25.36
67829;BMP280;54626;45.436;10.942;2023-06-10T09:31:06;100235.69;;;25.37
67829;BMP280;54626;45.436;10.942;2023-06-10T09:33:37;100243.28;;;25.13
67829;BMP280;54626;45.436;10.942;2023-06-10T09:36:07;100237.25;;;25.41
67829;BMP280;54626;45.436;10.942;2023-06-10T09:38:46;100237.25;;;25.41
67829;BMP280;54626;45.436;10.942;2023-06-10T09:41:15;100244.78;;;25.52
67829;BMP280;54626;45.436;10.942;2023-06-10T09:47:02;100240.69;;;25.57
67829;BMP280;54626;45.436;10.942;2023-06-10T09:53:06;100237.09;;;25.76
67829;BMP280;54626;45.436;10.942;2023-06-10T09:55:40;100246.00;;;25.88
67829;BMP280;54626;45.436;10.942;2023-06-10T09:58:07;100245.28;;;26.09
67829;BMP280;54626;45.436;10.942;2023-06-10T10:01:21;100238.13;;;26.29
67829;BMP280;54626;45.436;10.942;2023-06-10T10:03:51;100249.59;;;26.33
67829;BMP280;54626;45.436;10.942;2023-06-10T10:06:19;100247.75;;;26.65
67829;BMP280;54626;45.436;10.942;2023-06-10T10:08:50;100248.94;;;26.79
67829;BMP280;54626;45.436;10.942;2023-06-10T10:11:33;100248.97;;;26.81
67829;BMP280;54626;45.436;10.942;2023-06-10T10:17:23;100245.97;;;26.75
67829;BMP280;54626;45.436;10.942;2023-06-10T10:20:16;100245.91;;;26.98
67829;BMP280;54626;45.436;10.942;2023-06-10T10:23:11;100236.31;;;26.61
67829;BMP280;54626;45.436;10.942;2023-06-10T10:25:43;100232.91;;;27.15
67829;BMP280;54626;45.436;10.942;2023-06-10T10:41:28;100226.03;;;27.49
67829;BMP280;54626;45.436;10.942;2023-06-10T10:44:21;100228.56;;;27.12
67829;BMP280;54626;45.436;10.942;2023-06-10T10:46:49;100223.06;;;27.45
67829;BMP280;54626;45.436;10.942;2023-06-10T10:53:02;100234.63;;;27.78
67829;BMP280;54626;45.436;10.942;2023-06-10T11:05:40;100222.63;;;28.75
67829;BMP280;54626;45.436;10.942;2023-06-10T11:11:26;100218.44;;;28.45
67829;BMP280;54626;45.436;10.942;2023-06-10T11:16:48;100217.78;;;28.81
67829;BMP280;54626;45.436;10.942;2023-06-10T11:21:59;100206.28;;;29.52
67829;BMP280;54626;45.436;10.942;2023-06-10T11:24:32;100209.56;;;29.36
67829;BMP280;54626;45.436;10.942;2023-06-10T11:27:22;100212.53;;;29.85
67829;BMP280;54626;45.436;10.942;2023-06-10T11:32:50;100197.88;;;29.21
67829;BMP280;54626;45.436;10.942;2023-06-10T11:35:27;100198.13;;;28.95
67829;BMP280;54626;45.436;10.942;2023-06-10T11:37:55;100213.56;;;28.84
67829;BMP280;54626;45.436;10.942;2023-06-10T11:40:26;100214.81;;;28.42
67829;BMP280;54626;45.436;10.942;2023-06-10T11:46:44;100222.50;;;28.36
67829;BMP280;54626;45.436;10.942;2023-06-10T11:59:01;100203.75;;;29.30
67829;BMP280;54626;45.436;10.942;2023-06-10T12:01:33;100197.91;;;28.83
67829;BMP280;54626;45.436;10.942;2023-06-10T12:04:06;100197.53;;;29.03
67829;BMP280;54626;45.436;10.942;2023-06-10T12:06:45;100184.25;;;28.78
67829;BMP280;54626;45.436;10.942;2023-06-10T12:09:23;100184.38;;;28.86
67829;BMP280;54626;45.436;10.942;2023-06-10T12:11:58;100184.44;;;28.88
67829;BMP280;54626;45.436;10.942;2023-06-10T12:20:08;100158.13;;;27.90
67829;BMP280;54626;45.436;10.942;2023-06-10T12:22:40;100149.69;;;27.37
67829;BMP280;54626;45.436;10.942;2023-06-10T12:25:13;100144.91;;;27.17
67829;BMP280;54626;45.436;10.942;2023-06-10T12:27:56;100153.09;;;27.32
67829;BMP280;54626;45.436;10.942;2023-06-10T12:30:26;100153.56;;;27.50
67829;BMP280;54626;45.436;10.942;2023-06-10T12:32:59;100164.31;;;27.53
67829;BMP280;54626;45.436;10.942;2023-06-10T12:38:10;100155.63;;;27.77
67829;BMP280;54626;45.436;10.942;2023-06-10T12:41:06;100157.66;;;27.99
67829;BMP280;54626;45.436;10.942;2023-06-10T12:43:46;100155.56;;;28.02
67829;BMP280;54626;45.436;10.942;2023-06-10T12:53:15;100152.78;;;28.72
67829;BMP280;54626;45.436;10.942;2023-06-10T13:01:33;100151.22;;;29.86
67829;BMP280;54626;45.436;10.942;2023-06-10T13:03:59;100149.75;;;29.85
67829;BMP280;54626;45.436;10.942;2023-06-10T13:06:26;100152.84;;;30.01
67829;BMP280;54626;45.436;10.942;2023-06-10T13:08:53;100149.66;;;30.30
67829;BMP280;54626;45.436;10.942;2023-06-10T13:11:38;100147.25;;;30.66
67829;BMP280;54626;45.436;10.942;2023-06-10T13:14:05;100140.78;;;31.38
67829;BMP280;54626;45.436;10.942;2023-06-10T13:16:34;100136.66;;;31.59
67829;BMP280;54626;45.436;10.942;2023-06-10T13:19:00;100127.97;;;31.49
67829;BMP280;54626;45.436;10.942;2023-06-10T13:21:28;100127.56;;;30.96
67829;BMP280;54626;45.436;10.942;2023-06-10T13:24:04;100123.97;;;30.32
67829;BMP280;54626;45.436;10.942;2023-06-10T13:26:31;100121.47;;;30.58
67829;BMP280;54626;45.436;10.942;2023-06-10T13:28:58;100120.16;;;30.71
67829;BMP280;54626;45.436;10.942;2023-06-10T13:31:36;100120.72;;;30.56
67829;BMP280;54626;45.436;10.942;2023-06-10T13:34:28;100115.25;;;30.83
67829;BMP280;54626;45.436;10.942;2023-06-10T13:37:09;100113.94;;;30.96
67829;BMP280;54626;45.436;10.942;2023-06-10T13:39:35;100130.25;;;30.80
67829;BMP280;54626;45.436;10.942;2023-06-10T13:42:20;100122.34;;;30.74
67829;BMP280;54626;45.436;10.942;2023-06-10T13:45:01;100124.16;;;30.48
67829;BMP280;54626;45.436;10.942;2023-06-10T13:50:27;100131.22;;;29.84
67829;BMP280;54626;45.436;10.942;2023-06-10T13:56:22;100131.22;;;29.41
67829;BMP280;54626;45.436;10.942;2023-06-10T13:59:20;100127.41;;;29.23
67829;BMP280;54626;45.436;10.942;2023-06-10T14:02:07;100126.16;;;29.34
67829;BMP280;54626;45.436;10.942;2023-06-10T14:04:36;100122.59;;;29.35
67829;BMP280;54626;45.436;10.942;2023-06-10T14:07:05;100123.28;;;29.32
67829;BMP280;54626;45.436;10.942;2023-06-10T14:09:34;100121.00;;;28.85
67829;BMP280;54626;45.436;10.942;2023-06-10T14:12:00;100124.03;;;28.58
67829;BMP280;54626;45.436;10.942;2023-06-10T14:14:30;100124.75;;;27.92
67829;BMP280;54626;45.436;10.942;2023-06-10T14:17:01;100127.72;;;27.96
67829;BMP280;54626;45.436;10.942;2023-06-10T14:19:28;100118.31;;;27.90
67829;BMP280;54626;45.436;10.942;2023-06-10T14:21:54;100118.66;;;28.06
67829;BMP280;54626;45.436;10.942;2023-06-10T14:24:25;100104.41;;;28.74
67829;BMP280;54626;45.436;10.942;2023-06-10T14:26:57;100105.91;;;29.63
67829;BMP280;54626;45.436;10.942;2023-06-10T14:29:24;100088.22;;;30.27
67829;BMP280;54626;45.436;10.942;2023-06-10T14:31:53;100085.59;;;30.47
67829;BMP280;54626;45.436;10.942;2023-06-10T14:34:21;100078.69;;;30.03
67829;BMP280;54626;45.436;10.942;2023-06-10T14:36:49;100082.19;;;30.60
67829;BMP280;54626;45.436;10.942;2023-06-10T14:39:16;100079.16;;;31.21
67829;BMP280;54626;45.436;10.942;2023-06-10T14:41:42;100091.94;;;31.08
67829;BMP280;54626;45.436;10.942;2023-06-10T14:44:09;100075.41;;;30.99
67829;BMP280;54626;45.436;10.942;2023-06-10T14:46:36;100075.81;;;30.64
67829;BMP280;54626;45.436;10.942;2023-06-10T14:49:02;100080.19;;;30.75
67829;BMP280;54626;45.436;10.942;2023-06-10T14:51:29;100083.56;;;31.36
67829;BMP280;54626;45.436;10.942;2023-06-10T14:53:55;100072.00;;;31.18
67829;BMP280;54626;45.436;10.942;2023-06-10T14:59:51;100082.94;;;30.61
67829;BMP280;54626;45.436;10.942;2023-06-10T15:02:36;100081.78;;;30.90
67829;BMP280;54626;45.436;10.942;2023-06-10T15:05:03;100081.97;;;31.11
67829;BMP280;54626;45.436;10.942;2023-06-10T15:07:43;100086.81;;;30.97
67829;BMP280;54626;45.436;10.942;2023-06-10T15:10:17;100085.22;;;30.80
67829;BMP280;54626;45.436;10.942;2023-06-10T15:12:48;100081.91;;;31.07
67829;BMP280;54626;45.436;10.942;2023-06-10T15:15:22;100088.06;;;31.71
67829;BMP280;54626;45.436;10.942;2023-06-10T15:17:49;100085.38;;;32.10
67829;BMP280;54626;45.436;10.942;2023-06-10T15:20:16;100089.03;;;32.38
67829;BMP280;54626;45.436;10.942;2023-06-10T15:22:43;100082.50;;;32.00
67829;BMP280;54626;45.436;10.942;2023-06-10T15:25:13;100084.31;;;31.45
67829;BMP280;54626;45.436;10.942;2023-06-10T15:27:56;100083.75;;;31.62
67829;BMP280;54626;45.436;10.942;2023-06-10T15:30:25;100073.00;;;31.66
67829;BMP280;54626;45.436;10.942;2023-06-10T15:32:54;100082.19;;;31.47
67829;BMP280;54626;45.436;10.942;2023-06-10T15:35:20;100074.38;;;31.57
67829;BMP280;54626;45.436;10.942;2023-06-10T15:37:54;100074.38;;;31.53
67829;BMP280;54626;45.436;10.942;2023-06-10T15:40:21;100075.78;;;31.52
67829;BMP280;54626;45.436;10.942;2023-06-10T15:43:15;100071.94;;;31.12
67829;BMP280;54626;45.436;10.942;2023-06-10T15:45:42;100064.88;;;31.21
67829;BMP280;54626;45.436;10.942;2023-06-10T15:48:42;100062.22;;;31.55
67829;BMP280;54626;45.436;10.942;2023-06-10T15:51:57;100072.25;;;31.54
67829;BMP280;54626;45.436;10.942;2023-06-10T15:54:23;100064.50;;;31.86
67829;BMP280;54626;45.436;10.942;2023-06-10T15:56:50;100058.66;;;31.58
67829;BMP280;54626;45.436;10.942;2023-06-10T15:59:35;100052.34;;;31.82
67829;BMP280;54626;45.436;10.942;2023-06-10T16:02:01;100060.97;;;31.88
67829;BMP280;54626;45.436;10.942;2023-06-10T16:04:34;100061.03;;;30.89
67829;BMP280;54626;45.436;10.942;2023-06-10T16:07:01;100042.66;;;31.18
67829;BMP280;54626;45.436;10.942;2023-06-10T16:09:28;100048.47;;;30.47
67829;BMP280;54626;45.436;10.942;2023-06-10T16:11:54;100042.88;;;29.94
67829;BMP280;54626;45.436;10.942;2023-06-10T16:14:21;100042.63;;;29.74